createdAt,value
2019-04-10T00:00:15.705Z,17.20
2019-04-10T00:02:45.967Z,17.10
2019-04-10T00:05:14.677Z,17.10
2019-04-10T00:07:43.872Z,17.10
2019-04-10T00:10:13.855Z,17.00
2019-04-10T00:12:42.869Z,17.00
2019-04-10T00:15:12.719Z,17.00
2019-04-10T00:17:42.898Z,16.90
2019-04-10T00:20:11.989Z,16.90
2019-04-10T00:22:40.917Z,16.90
2019-04-10T00:25:10.582Z,16.90
2019-04-10T00:27:39.389Z,16.90
2019-04-10T00:30:09.072Z,16.80
2019-04-10T00:32:38.341Z,16.80
2019-04-10T00:35:07.013Z,16.70
2019-04-10T00:37:35.660Z,16.70
2019-04-10T00:40:04.402Z,16.70
2019-04-10T00:42:33.005Z,16.60
2019-04-10T00:45:02.043Z,16.50
2019-04-10T00:47:30.960Z,16.50
2019-04-10T00:49:59.613Z,16.50
2019-04-10T00:52:28.509Z,16.50
2019-04-10T00:54:57.485Z,16.40
2019-04-10T00:57:27.452Z,16.40
2019-04-10T00:59:56.826Z,16.40
2019-04-10T01:02:45.194Z,16.40
2019-04-10T01:05:33.317Z,16.30
2019-04-10T01:08:21.410Z,16.30
2019-04-10T01:11:10.612Z,16.10
2019-04-10T01:13:59.295Z,16.10
2019-04-10T01:16:47.406Z,16.00
2019-04-10T01:19:36.373Z,16.00
2019-04-10T01:22:25.703Z,16.00
2019-04-10T01:25:14.438Z,16.00
2019-04-10T01:28:04.677Z,15.90
2019-04-10T01:30:53.580Z,15.90
2019-04-10T01:33:41.643Z,15.80
2019-04-10T01:36:29.655Z,15.80
2019-04-10T01:42:30.808Z,15.70
2019-04-10T01:45:19.516Z,15.70
2019-04-10T01:48:08.486Z,15.60
2019-04-10T01:50:57.082Z,15.50
2019-04-10T01:53:25.992Z,15.50
2019-04-10T01:55:55.584Z,15.50
2019-04-10T01:58:25.345Z,15.40
2019-04-10T02:04:07.834Z,15.40
2019-04-10T02:06:37.962Z,15.30
2019-04-10T02:09:08.998Z,15.30
2019-04-10T02:11:37.944Z,15.30
2019-04-10T02:14:06.569Z,15.30
2019-04-10T02:16:36.177Z,15.30
2019-04-10T02:19:05.928Z,15.30
2019-04-10T02:21:54.001Z,15.20
2019-04-10T02:24:43.062Z,15.10
2019-04-10T02:27:11.765Z,15.10
2019-04-10T02:29:59.913Z,15.10
2019-04-10T02:32:28.891Z,15.10
2019-04-10T02:34:58.186Z,15.00
2019-04-10T02:37:27.175Z,15.00
2019-04-10T02:40:00.049Z,15.00
2019-04-10T02:42:26.839Z,14.90
2019-04-10T02:44:55.579Z,14.90
2019-04-10T02:47:24.232Z,14.90
2019-04-10T02:49:54.479Z,14.90
2019-04-10T02:52:24.594Z,14.80
2019-04-10T02:54:53.791Z,14.80
2019-04-10T02:57:23.282Z,14.70
2019-04-10T02:59:53.821Z,14.70
2019-04-10T03:02:24.295Z,14.80
2019-04-10T03:04:55.046Z,14.70
2019-04-10T03:07:24.159Z,14.70
2019-04-10T03:10:15.140Z,14.60
2019-04-10T03:12:34.109Z,14.60
2019-04-10T03:15:03.458Z,14.60
2019-04-10T03:17:53.040Z,14.60
2019-04-10T03:20:22.489Z,14.50
2019-04-10T03:22:51.724Z,14.50
2019-04-10T03:25:21.235Z,14.40
2019-04-10T03:27:50.531Z,14.40
2019-04-10T03:30:22.384Z,14.30
2019-04-10T03:33:12.363Z,14.30
2019-04-10T03:35:48.100Z,14.30
2019-04-10T03:38:49.941Z,14.30
2019-04-10T03:41:08.156Z,14.30
2019-04-10T03:43:38.216Z,14.10
2019-04-10T03:46:07.105Z,14.10
2019-04-10T03:48:36.786Z,14.20
2019-04-10T03:51:08.086Z,14.20
2019-04-10T03:53:57.039Z,14.20
2019-04-10T03:56:26.140Z,14.10
2019-04-10T03:58:55.783Z,14.10
2019-04-10T04:01:25.082Z,14.00
2019-04-10T04:03:55.126Z,14.00
2019-04-10T04:06:44.001Z,14.00
2019-04-10T04:09:14.704Z,14.00
2019-04-10T04:11:44.088Z,14.00
2019-04-10T04:14:12.946Z,13.90
2019-04-10T04:16:41.834Z,13.90
2019-04-10T04:19:10.718Z,13.80
2019-04-10T04:21:39.870Z,13.80
2019-04-10T04:24:28.318Z,13.80
2019-04-10T04:26:57.447Z,13.80
2019-04-10T04:29:45.546Z,13.70
2019-04-10T04:32:34.001Z,13.70
2019-04-10T04:35:03.159Z,13.70
2019-04-10T04:37:33.574Z,13.70
2019-04-10T04:40:22.006Z,13.60
2019-04-10T04:42:51.436Z,13.60
2019-04-10T04:45:20.160Z,13.60
2019-04-10T04:47:50.272Z,13.60
2019-04-10T04:50:19.961Z,13.50
2019-04-10T04:52:49.531Z,13.50
2019-04-10T04:55:18.177Z,13.50
2019-04-10T04:58:06.382Z,13.50
2019-04-10T05:00:35.340Z,13.50
2019-04-10T05:03:04.050Z,13.60
2019-04-10T05:05:33.669Z,13.60
2019-04-10T05:08:04.290Z,13.60
2019-04-10T05:10:33.680Z,13.50
2019-04-10T05:13:03.826Z,13.50
2019-04-10T05:15:33.314Z,13.50
2019-04-10T05:18:02.266Z,13.50
2019-04-10T05:20:41.244Z,13.40
2019-04-10T05:23:02.123Z,13.50
2019-04-10T05:25:31.649Z,13.50
2019-04-10T05:28:01.552Z,13.50
2019-04-10T05:30:31.365Z,13.40
2019-04-10T05:33:20.532Z,13.50
2019-04-10T05:35:49.510Z,13.40
2019-04-10T05:38:18.789Z,13.40
2019-04-10T05:40:48.519Z,13.40
2019-04-10T05:43:17.647Z,13.40
2019-04-10T05:45:48.560Z,13.30
2019-04-10T05:48:17.820Z,13.40
2019-04-10T05:50:54.086Z,13.40
2019-04-10T05:53:18.461Z,13.40
2019-04-10T05:55:47.419Z,13.40
2019-04-10T05:58:17.431Z,13.40
2019-04-10T06:00:47.074Z,13.40
2019-04-10T06:03:36.568Z,13.40
2019-04-10T06:06:06.240Z,13.40
2019-04-10T06:08:35.703Z,13.50
2019-04-10T06:11:04.621Z,13.50
2019-04-10T06:13:34.755Z,13.50
2019-04-10T06:16:03.601Z,13.50
2019-04-10T06:18:33.360Z,13.50
2019-04-10T06:21:02.995Z,13.50
2019-04-10T06:23:32.179Z,13.40
2019-04-10T06:26:03.401Z,13.40
2019-04-10T06:28:51.319Z,13.50
2019-04-10T06:31:20.751Z,13.50
2019-04-10T06:33:50.588Z,13.40
2019-04-10T06:36:19.604Z,13.50
2019-04-10T06:38:48.246Z,13.50
2019-04-10T06:41:17.769Z,13.50
2019-04-10T06:43:48.278Z,13.50
2019-04-10T06:46:17.803Z,13.50
2019-04-10T06:48:46.700Z,13.40
2019-04-10T06:51:18.820Z,13.60
2019-04-10T06:54:09.878Z,13.50
2019-04-10T06:56:37.528Z,13.50
2019-04-10T06:59:06.725Z,13.70
2019-04-10T07:01:44.370Z,13.80
2019-04-10T07:04:26.582Z,13.80
2019-04-10T07:07:03.031Z,13.80
2019-04-10T07:09:27.162Z,13.90
2019-04-10T07:11:59.831Z,13.90
2019-04-10T07:14:26.804Z,13.90
2019-04-10T07:17:00.631Z,14.00
2019-04-10T07:19:47.310Z,14.00
2019-04-10T07:22:17.429Z,14.10
2019-04-10T07:24:48.210Z,14.20
2019-04-10T07:27:17.148Z,14.20
2019-04-10T07:29:50.499Z,14.30
2019-04-10T07:32:36.148Z,14.40
2019-04-10T07:35:05.225Z,14.40
2019-04-10T07:37:34.098Z,14.60
2019-04-10T07:40:04.474Z,14.70
2019-04-10T07:42:37.979Z,14.70
2019-04-10T07:45:03.655Z,14.80
2019-04-10T07:47:51.792Z,15.00
2019-04-10T07:50:41.370Z,15.20
2019-04-10T07:53:30.680Z,15.30
2019-04-10T07:56:20.864Z,15.50
2019-04-10T07:58:49.674Z,15.60
2019-04-10T08:01:18.899Z,15.90
2019-04-10T08:03:48.073Z,16.30
2019-04-10T08:06:17.920Z,16.50
2019-04-10T08:08:47.303Z,16.80
2019-04-10T08:11:16.224Z,16.90
2019-04-10T08:13:45.390Z,17.10
2019-04-10T08:16:14.849Z,17.30
2019-04-10T08:18:43.766Z,17.60
2019-04-10T08:21:13.499Z,17.70
2019-04-10T08:23:42.694Z,17.90
2019-04-10T08:26:12.167Z,18.00
2019-04-10T08:28:41.306Z,18.40
2019-04-10T08:31:09.980Z,18.40
2019-04-10T08:33:38.837Z,18.60
2019-04-10T08:36:07.769Z,18.80
2019-04-10T08:38:36.439Z,18.90
2019-04-10T08:41:05.167Z,19.00
2019-04-10T08:43:54.442Z,18.90
2019-04-10T08:46:24.048Z,19.20
2019-04-10T08:48:53.916Z,19.60
2019-04-10T08:51:23.473Z,19.90
2019-04-10T08:53:55.224Z,20.10
2019-04-10T08:56:24.633Z,20.30
2019-04-10T08:59:12.432Z,20.50
2019-04-10T09:01:53.697Z,20.40
2019-04-10T09:04:22.649Z,20.40
2019-04-10T09:06:51.579Z,20.40
2019-04-10T09:09:21.537Z,20.30
2019-04-10T09:11:51.593Z,20.50
2019-04-10T09:14:39.870Z,20.90
2019-04-10T09:17:28.158Z,21.40
2019-04-10T09:19:56.854Z,21.70
2019-04-10T09:23:10.336Z,21.90
2019-04-10T09:25:16.265Z,22.20
2019-04-10T09:27:46.292Z,22.40
2019-04-10T09:30:35.280Z,22.60
2019-04-10T09:33:27.491Z,23.00
2019-04-10T09:35:55.107Z,23.40
2019-04-10T09:38:24.099Z,23.70
2019-04-10T09:40:53.474Z,24.10
2019-04-10T09:43:42.125Z,24.50
2019-04-10T09:46:11.307Z,24.40
2019-04-10T09:49:00.467Z,24.60
2019-04-10T09:51:48.552Z,24.80
2019-04-10T09:54:36.785Z,24.70
2019-04-10T09:57:24.733Z,25.00
2019-04-10T09:59:54.518Z,25.00
2019-04-10T10:06:30.718Z,24.90
2019-04-10T10:11:44.839Z,25.40
2019-04-10T10:17:08.623Z,26.00
2019-04-10T10:19:39.165Z,26.30
2019-04-10T10:22:07.754Z,26.60
2019-04-10T10:24:36.493Z,26.70
2019-04-10T10:27:05.473Z,26.90
2019-04-10T10:29:34.126Z,27.10
2019-04-10T10:32:03.014Z,27.30
2019-04-10T10:34:31.739Z,27.40
2019-04-10T10:37:03.170Z,27.70
2019-04-10T10:39:31.018Z,27.80
2019-04-10T10:41:59.653Z,28.10
2019-04-10T10:44:28.324Z,28.20
2019-04-10T10:46:57.929Z,28.50
2019-04-10T10:49:26.883Z,28.60
2019-04-10T10:51:55.529Z,28.70
2019-04-10T10:54:25.040Z,28.90
2019-04-10T10:56:55.009Z,29.00
2019-04-10T10:59:23.722Z,29.30
2019-04-10T11:01:52.411Z,29.60
2019-04-10T11:04:21.327Z,29.70
2019-04-10T11:06:57.737Z,29.90
2019-04-10T11:09:20.387Z,30.00
2019-04-10T11:11:49.522Z,30.20
2019-04-10T11:14:19.130Z,30.20
2019-04-10T11:16:49.470Z,30.30
2019-04-10T11:19:19.850Z,30.40
2019-04-10T11:21:49.622Z,30.70
2019-04-10T11:24:19.610Z,31.10
2019-04-10T11:26:50.375Z,33.00
2019-04-10T11:29:19.467Z,35.30
2019-04-10T11:31:49.251Z,36.90
2019-04-10T11:34:18.197Z,38.30
2019-04-10T11:36:48.251Z,39.60
2019-04-10T11:39:25.408Z,40.70
2019-04-10T11:41:49.945Z,42.00
2019-04-10T11:44:20.271Z,42.80
2019-04-10T11:46:51.869Z,43.60
2019-04-10T11:49:22.932Z,44.50
2019-04-10T11:51:52.943Z,45.50
2019-04-10T11:54:25.031Z,46.20
2019-04-10T11:56:54.941Z,46.90
2019-04-10T11:59:24.132Z,47.50
2019-04-10T12:01:56.974Z,47.80
2019-04-10T12:04:23.397Z,48.50
2019-04-10T12:06:55.301Z,49.20
2019-04-10T12:10:06.507Z,49.50
2019-04-10T12:11:53.113Z,49.70
2019-04-10T12:14:21.803Z,50.10
2019-04-10T12:16:51.513Z,50.40
2019-04-10T12:19:22.696Z,50.60
2019-04-10T12:21:50.872Z,51.40
2019-04-10T12:24:19.708Z,51.80
2019-04-10T12:26:48.449Z,52.80
2019-04-10T12:29:18.281Z,54.10
2019-04-10T12:31:48.014Z,55.30
2019-04-10T12:34:18.014Z,56.00
2019-04-10T12:36:46.993Z,56.00
2019-04-10T12:39:16.223Z,56.00
2019-04-10T12:41:45.836Z,55.30
2019-04-10T12:44:15.654Z,53.40
2019-04-10T12:46:45.669Z,50.70
2019-04-10T12:49:15.110Z,48.50
2019-04-10T12:51:44.022Z,45.40
2019-04-10T12:54:12.877Z,47.90
2019-04-10T12:56:42.189Z,49.40
2019-04-10T12:59:11.256Z,50.90
2019-04-10T13:01:40.803Z,53.20
2019-04-10T13:04:10.038Z,54.80
2019-04-10T13:06:39.925Z,55.70
2019-04-10T13:09:12.487Z,56.10
2019-04-10T13:11:40.634Z,56.30
2019-04-10T13:14:10.538Z,56.70
2019-04-10T13:16:40.340Z,51.90
2019-04-10T13:19:11.177Z,45.90
2019-04-10T13:21:40.141Z,41.50
2019-04-10T13:24:09.328Z,41.00
2019-04-10T13:26:38.309Z,45.80
2019-04-10T13:29:07.750Z,49.60
2019-04-10T13:31:37.367Z,51.80
2019-04-10T13:34:06.545Z,53.20
2019-04-10T13:36:36.409Z,53.90
2019-04-10T13:39:06.747Z,54.10
2019-04-10T13:41:36.616Z,50.70
2019-04-10T13:44:06.488Z,47.00
2019-04-10T13:46:35.624Z,44.10
2019-04-10T13:49:04.265Z,43.60
2019-04-10T13:51:32.960Z,43.50
2019-04-10T13:54:02.093Z,42.70
2019-04-10T13:56:31.170Z,42.20
2019-04-10T13:59:00.552Z,41.30
2019-04-10T14:01:31.632Z,40.70
2019-04-10T14:04:00.832Z,40.00
2019-04-10T14:06:29.818Z,39.10
2019-04-10T14:09:11.891Z,37.50
2019-04-10T14:11:29.182Z,36.30
2019-04-10T14:13:58.108Z,37.00
2019-04-10T14:16:26.741Z,39.80
2019-04-10T14:18:55.358Z,41.20
2019-04-10T14:21:24.876Z,41.50
2019-04-10T14:23:53.642Z,41.30
2019-04-10T14:26:43.975Z,40.80
2019-04-10T14:29:12.297Z,40.40
2019-04-10T14:32:05.017Z,39.70
2019-04-10T14:34:34.535Z,39.20
2019-04-10T14:37:05.204Z,38.70
2019-04-10T14:39:34.890Z,38.40
2019-04-10T14:42:04.626Z,37.90
2019-04-10T14:44:34.760Z,37.70
2019-04-10T14:47:04.437Z,37.30
2019-04-10T14:49:33.493Z,37.10
2019-04-10T14:52:03.202Z,37.00
2019-04-10T14:54:32.293Z,36.40
2019-04-10T14:57:00.937Z,35.80
2019-04-10T14:59:29.857Z,35.30
2019-04-10T15:01:58.504Z,35.10
2019-04-10T15:04:27.392Z,34.80
2019-04-10T15:06:57.506Z,34.70
2019-04-10T15:09:26.359Z,34.60
2019-04-10T15:11:57.077Z,34.50
2019-04-10T15:14:25.998Z,34.20
2019-04-10T15:17:00.146Z,34.10
2019-04-10T15:19:25.343Z,34.00
2019-04-10T15:21:54.081Z,33.80
2019-04-10T15:24:23.792Z,33.50
2019-04-10T15:26:52.892Z,33.30
2019-04-10T15:29:22.756Z,33.00
2019-04-10T15:31:52.286Z,32.70
2019-04-10T15:34:21.098Z,32.30
2019-04-10T15:36:50.792Z,31.80
2019-04-10T15:39:30.206Z,31.60
2019-04-10T15:41:50.214Z,31.40
2019-04-10T15:44:19.425Z,31.10
2019-04-10T15:46:49.052Z,30.90
2019-04-10T15:49:18.033Z,30.60
2019-04-10T15:51:47.505Z,30.40
2019-04-10T15:54:16.466Z,30.10
2019-04-10T15:56:45.091Z,29.80
2019-04-10T15:59:14.226Z,29.60
2019-04-10T16:01:43.525Z,29.50
2019-04-10T16:04:12.396Z,29.20
2019-04-10T16:06:43.685Z,29.00
2019-04-10T16:09:13.442Z,28.90
2019-04-10T16:11:52.922Z,28.80
2019-04-10T16:14:25.603Z,28.70
2019-04-10T16:17:22.319Z,28.50
2019-04-10T16:20:13.576Z,28.30
2019-04-10T16:22:56.937Z,28.10
2019-04-10T16:25:29.755Z,27.90
2019-04-10T16:28:04.029Z,27.70
2019-04-10T16:30:33.031Z,27.50
2019-04-10T16:33:02.906Z,27.40
2019-04-10T16:35:34.046Z,27.30
2019-04-10T16:38:02.680Z,27.10
2019-04-10T16:40:32.027Z,27.00
2019-04-10T16:43:01.523Z,26.90
2019-04-10T16:45:31.010Z,26.80
2019-04-10T16:48:00.784Z,26.70
2019-04-10T16:50:30.006Z,26.60
2019-04-10T16:52:59.281Z,26.50
2019-04-10T16:55:29.078Z,26.50
2019-04-10T16:57:59.108Z,26.30
2019-04-10T17:00:29.084Z,26.30
2019-04-10T17:02:59.144Z,26.10
2019-04-10T17:05:28.297Z,26.00
2019-04-10T17:07:57.396Z,25.90
2019-04-10T17:10:29.163Z,25.80
2019-04-10T17:12:58.370Z,25.80
2019-04-10T17:15:28.179Z,25.60
2019-04-10T17:17:57.401Z,25.60
2019-04-10T17:20:26.773Z,25.40
2019-04-10T17:22:56.400Z,25.40
2019-04-10T17:25:26.261Z,25.20
2019-04-10T17:27:56.308Z,25.20
2019-04-10T17:30:25.501Z,25.10
2019-04-10T17:32:54.704Z,25.00
2019-04-10T17:35:23.694Z,24.90
2019-04-10T17:37:52.597Z,24.80
2019-04-10T17:40:29.772Z,24.70
2019-04-10T17:42:52.690Z,24.60
2019-04-10T17:45:22.992Z,24.50
2019-04-10T17:47:51.866Z,24.50
2019-04-10T17:50:20.690Z,24.40
2019-04-10T17:52:49.625Z,24.20
2019-04-10T17:55:19.704Z,24.20
2019-04-10T17:57:48.919Z,24.10
2019-04-10T18:00:31.319Z,24.00
2019-04-10T18:03:01.311Z,23.90
2019-04-10T18:05:30.860Z,23.80
2019-04-10T18:08:00.707Z,23.70
2019-04-10T18:10:41.062Z,23.60
2019-04-10T18:13:00.922Z,23.60
2019-04-10T18:15:30.317Z,23.50
2019-04-10T18:17:59.714Z,23.40
2019-04-10T18:20:28.761Z,23.30
2019-04-10T18:22:58.697Z,23.20
2019-04-10T18:25:27.708Z,23.10
2019-04-10T18:27:56.921Z,23.00
2019-04-10T18:30:25.968Z,23.00
2019-04-10T18:32:54.640Z,22.90
2019-04-10T18:35:23.324Z,22.80
2019-04-10T18:37:53.548Z,22.70
2019-04-10T18:40:23.319Z,22.60
2019-04-10T18:42:55.027Z,22.50
2019-04-10T18:45:23.902Z,22.50
2019-04-10T18:47:52.915Z,22.40
2019-04-10T18:50:22.357Z,22.30
2019-04-10T18:52:51.830Z,22.20
2019-04-10T18:55:20.581Z,22.20
2019-04-10T18:57:49.873Z,22.10
2019-04-10T19:00:43.602Z,22.00
2019-04-10T19:03:22.097Z,21.90
2019-04-10T19:05:54.173Z,21.80
2019-04-10T19:08:23.998Z,21.70
2019-04-10T19:11:07.630Z,21.60
2019-04-10T19:13:24.740Z,21.60
2019-04-10T19:15:53.594Z,21.50
2019-04-10T19:18:23.639Z,21.50
2019-04-10T19:20:53.246Z,21.40
2019-04-10T19:23:23.900Z,21.30
2019-04-10T19:25:53.210Z,21.40
2019-04-10T19:28:30.062Z,21.20
2019-04-10T19:31:08.780Z,21.20
2019-04-10T19:33:31.339Z,21.20
2019-04-10T19:36:01.493Z,21.00
2019-04-10T19:38:31.591Z,21.00
2019-04-10T19:41:00.681Z,21.00
2019-04-10T19:43:30.506Z,20.90
2019-04-10T19:46:00.619Z,20.80
2019-04-10T19:48:31.010Z,20.70
2019-04-10T19:51:00.217Z,20.70
2019-04-10T19:53:29.098Z,20.70
2019-04-10T19:55:58.143Z,20.60
2019-04-10T19:58:28.153Z,20.60
2019-04-10T20:00:57.616Z,20.50
2019-04-10T20:03:26.338Z,20.50
2019-04-10T20:05:55.528Z,20.40
2019-04-10T20:08:24.236Z,20.40
2019-04-10T20:10:53.046Z,20.30
2019-04-10T20:13:22.738Z,20.30
2019-04-10T20:15:52.974Z,20.20
2019-04-10T20:18:21.838Z,20.10
2019-04-10T20:20:51.398Z,20.10
2019-04-10T20:23:21.516Z,20.10
2019-04-10T20:25:50.568Z,20.00
2019-04-10T20:28:19.301Z,19.90
2019-04-10T20:30:49.054Z,19.80
2019-04-10T20:33:19.278Z,19.80
2019-04-10T20:35:48.811Z,19.80
2019-04-10T20:38:17.854Z,19.70
2019-04-10T20:40:46.827Z,19.70
2019-04-10T20:43:15.844Z,19.70
2019-04-10T20:45:45.462Z,19.60
2019-04-10T20:48:14.426Z,19.50
2019-04-10T20:50:43.917Z,19.50
2019-04-10T20:53:12.923Z,19.40
2019-04-10T20:55:41.950Z,19.40
2019-04-10T20:58:11.336Z,19.40
2019-04-10T21:00:41.235Z,19.30
2019-04-10T21:03:09.920Z,19.20
2019-04-10T21:05:38.569Z,19.20
2019-04-10T21:08:07.314Z,19.20
2019-04-10T21:10:36.286Z,19.20
2019-04-10T21:13:06.406Z,19.00
2019-04-10T21:15:35.633Z,19.00
2019-04-10T21:18:05.123Z,19.00
2019-04-10T21:20:34.573Z,18.90
2019-04-10T21:23:03.545Z,18.80
2019-04-10T21:25:32.969Z,18.80
2019-04-10T21:28:02.554Z,18.80
2019-04-10T21:30:49.142Z,18.70
2019-04-10T21:33:28.018Z,18.70
2019-04-10T21:35:57.526Z,18.60
2019-04-10T21:38:26.429Z,18.50
2019-04-10T21:40:55.377Z,18.50
2019-04-10T21:43:24.103Z,18.50
2019-04-10T21:45:52.813Z,18.40
2019-04-10T21:48:22.401Z,18.40
2019-04-10T21:50:51.765Z,18.40
2019-04-10T21:53:20.487Z,18.30
2019-04-10T21:55:49.156Z,18.30
2019-04-10T21:58:17.872Z,18.20
2019-04-10T22:01:03.487Z,18.10
2019-04-10T22:03:33.679Z,18.20
2019-04-10T22:06:20.532Z,18.10
2019-04-10T22:09:10.385Z,18.10
2019-04-10T22:11:39.642Z,17.90
2019-04-10T22:14:08.864Z,17.90
2019-04-10T22:16:38.041Z,17.90
2019-04-10T22:19:07.147Z,17.90
2019-04-10T22:21:35.820Z,17.90
2019-04-10T22:24:05.175Z,17.80
2019-04-10T22:26:34.417Z,17.80
2019-04-10T22:29:03.596Z,17.80
2019-04-10T22:31:33.951Z,17.70
2019-04-10T22:34:03.111Z,17.60
2019-04-10T22:36:33.139Z,17.60
2019-04-10T22:39:04.883Z,17.50
2019-04-10T22:41:34.164Z,17.60
2019-04-10T22:44:05.443Z,17.60
2019-04-10T22:46:34.831Z,17.50
2019-04-10T22:49:04.275Z,17.50
2019-04-10T22:51:33.265Z,17.40
2019-04-10T22:54:02.578Z,17.40
2019-04-10T22:56:31.581Z,17.40
2019-04-10T22:59:01.724Z,17.20
2019-04-10T23:01:31.299Z,17.20
2019-04-10T23:04:00.357Z,17.20
2019-04-10T23:06:29.524Z,17.20
2019-04-10T23:08:58.446Z,17.20
2019-04-10T23:11:36.795Z,17.10
2019-04-10T23:13:58.534Z,17.10
2019-04-10T23:16:28.241Z,17.00
2019-04-10T23:18:58.153Z,17.00
2019-04-10T23:21:28.293Z,17.00
2019-04-10T23:23:57.293Z,16.90
2019-04-10T23:26:26.210Z,16.90
2019-04-10T23:28:55.863Z,16.90
2019-04-10T23:31:25.499Z,16.80
2019-04-10T23:33:54.524Z,16.80
2019-04-10T23:36:24.641Z,16.70
2019-04-10T23:38:53.686Z,16.70
2019-04-10T23:41:23.333Z,16.60
2019-04-10T23:43:52.100Z,16.60
2019-04-10T23:46:22.214Z,16.60
2019-04-10T23:48:51.178Z,16.60
2019-04-10T23:51:21.069Z,16.50
2019-04-10T23:53:50.740Z,16.50
2019-04-10T23:56:19.905Z,16.50
2019-04-10T23:58:50.637Z,16.40
